Terminal Aerodrome Forecast
Issued by NWS

Home | Current Version | Previous Version | Text Only | Print | Product List | Glossary On
Versions: 1 2 3 4 5 6 7 8 9 10 11 12 13 14
000
FTUS42 KTAE 301600 AAB
TAFVLD
TAF AMD
KVLD 301631Z 3017/3112 12004KT P6SM BKN025
      TEMPO 3020/3024 5SM TSRA BKN035CB
     FM310000 15003KT P6SM BKN250=

USA.gov is the U.S. government's official web portal to all federal, state and local government web resources and services.